sensor_id;sensor_type;location;lat;lon;timestamp;pressure;altitude;pressure_sealevel;temperature
64394;BMP280;50712;49.506;10.400;2022-12-18T00:00:17;99249.59;;;-8.26
64394;BMP280;50712;49.506;10.400;2022-12-18T00:00:48;99245.13;;;-8.25
64394;BMP280;50712;49.506;10.400;2022-12-18T00:01:25;99248.56;;;-8.24
64394;BMP280;50712;49.506;10.400;2022-12-18T00:02:01;99248.81;;;-8.26
64394;BMP280;50712;49.506;10.400;2022-12-18T00:02:31;99245.38;;;-8.27
64394;BMP280;50712;49.506;10.400;2022-12-18T00:03:01;99232.97;;;-8.26
64394;BMP280;50712;49.506;10.400;2022-12-18T00:03:34;99242.75;;;-8.27
64394;BMP280;50712;49.506;10.400;2022-12-18T00:04:07;99245.38;;;-8.27
64394;BMP280;50712;49.506;10.400;2022-12-18T00:04:42;99238.25;;;-8.26
64394;BMP280;50712;49.506;10.400;2022-12-18T00:05:13;99241.94;;;-8.27
64394;BMP280;50712;49.506;10.400;2022-12-18T00:05:47;99240.88;;;-8.26
64394;BMP280;50712;49.506;10.400;2022-12-18T00:06:18;99239.31;;;-8.27
64394;BMP280;50712;49.506;10.400;2022-12-18T00:06:49;99242.75;;;-8.27
64394;BMP280;50712;49.506;10.400;2022-12-18T00:07:20;99240.09;;;-8.27
64394;BMP280;50712;49.506;10.400;2022-12-18T00:07:50;99236.94;;;-8.29
64394;BMP280;50712;49.506;10.400;2022-12-18T00:08:20;99241.94;;;-8.27
64394;BMP280;50712;49.506;10.400;2022-12-18T00:08:51;99236.66;;;-8.27
64394;BMP280;50712;49.506;10.400;2022-12-18T00:09:21;99244.59;;;-8.27
64394;BMP280;50712;49.506;10.400;2022-12-18T00:09:51;99241.19;;;-8.28
64394;BMP280;50712;49.506;10.400;2022-12-18T00:10:22;99237.75;;;-8.28
64394;BMP280;50712;49.506;10.400;2022-12-18T00:10:52;99243.84;;;-8.28
64394;BMP280;50712;49.506;10.400;2022-12-18T00:11:24;99243.84;;;-8.28
64394;BMP280;50712;49.506;10.400;2022-12-18T00:11:56;99245.69;;;-8.28
64394;BMP280;50712;49.506;10.400;2022-12-18T00:12:27;99243.03;;;-8.28
64394;BMP280;50712;49.506;10.400;2022-12-18T00:12:57;99236.94;;;-8.29
64394;BMP280;50712;49.506;10.400;2022-12-18T00:13:27;99244.84;;;-8.29
64394;BMP280;50712;49.506;10.400;2022-12-18T00:13:58;99238.78;;;-8.29
64394;BMP280;50712;49.506;10.400;2022-12-18T00:14:29;99242.22;;;-8.29
64394;BMP280;50712;49.506;10.400;2022-12-18T00:15:01;99235.13;;;-8.28
64394;BMP280;50712;49.506;10.400;2022-12-18T00:15:33;99241.44;;;-8.29
64394;BMP280;50712;49.506;10.400;2022-12-18T00:16:06;99244.84;;;-8.29
64394;BMP280;50712;49.506;10.400;2022-12-18T00:16:39;99242.22;;;-8.29
64394;BMP280;50712;49.506;10.400;2022-12-18T00:17:10;99239.56;;;-8.29
64394;BMP280;50712;49.506;10.400;2022-12-18T00:17:40;99241.44;;;-8.29
64394;BMP280;50712;49.506;10.400;2022-12-18T00:18:10;99239.56;;;-8.29
64394;BMP280;50712;49.506;10.400;2022-12-18T00:18:41;99245.69;;;-8.28
64394;BMP280;50712;49.506;10.400;2022-12-18T00:19:12;99236.94;;;-8.29
64394;BMP280;50712;49.506;10.400;2022-12-18T00:19:43;99238.53;;;-8.28
64394;BMP280;50712;49.506;10.400;2022-12-18T00:20:14;99243.03;;;-8.28
64394;BMP280;50712;49.506;10.400;2022-12-18T00:20:44;99246.47;;;-8.28
64394;BMP280;50712;49.506;10.400;2022-12-18T00:21:14;99243.84;;;-8.28
64394;BMP280;50712;49.506;10.400;2022-12-18T00:21:45;99241.19;;;-8.28
64394;BMP280;50712;49.506;10.400;2022-12-18T00:22:15;99244.59;;;-8.27
64394;BMP280;50712;49.506;10.400;2022-12-18T00:22:48;99234.28;;;-8.29
64394;BMP280;50712;49.506;10.400;2022-12-18T00:23:19;99239.31;;;-8.27
64394;BMP280;50712;49.506;10.400;2022-12-18T00:23:49;99238.53;;;-8.28
64394;BMP280;50712;49.506;10.400;2022-12-18T00:24:20;99238.53;;;-8.28
64394;BMP280;50712;49.506;10.400;2022-12-18T00:24:50;99238.53;;;-8.28
64394;BMP280;50712;49.506;10.400;2022-12-18T00:25:21;99237.75;;;-8.28
64394;BMP280;50712;49.506;10.400;2022-12-18T00:25:51;99237.75;;;-8.28
64394;BMP280;50712;49.506;10.400;2022-12-18T00:26:23;99240.41;;;-8.28
64394;BMP280;50712;49.506;10.400;2022-12-18T00:27:04;99236.13;;;-8.29
64394;BMP280;50712;49.506;10.400;2022-12-18T00:27:34;99238.78;;;-8.29
64394;BMP280;50712;49.506;10.400;2022-12-18T00:28:05;99236.94;;;-8.29
64394;BMP280;50712;49.506;10.400;2022-12-18T00:28:35;99235.34;;;-8.30
64394;BMP280;50712;49.506;10.400;2022-12-18T00:29:13;99239.84;;;-8.30
64394;BMP280;50712;49.506;10.400;2022-12-18T00:29:43;99237.22;;;-8.30
64394;BMP280;50712;49.506;10.400;2022-12-18T00:30:14;99247.00;;;-8.31
64394;BMP280;50712;49.506;10.400;2022-12-18T00:30:44;99245.44;;;-8.32
64394;BMP280;50712;49.506;10.400;2022-12-18T00:31:16;99247.78;;;-8.30
64394;BMP280;50712;49.506;10.400;2022-12-18T00:31:49;99250.72;;;-8.32
64394;BMP280;50712;49.506;10.400;2022-12-18T00:32:20;99252.56;;;-8.32
64394;BMP280;50712;49.506;10.400;2022-12-18T00:32:51;99255.22;;;-8.32
64394;BMP280;50712;49.506;10.400;2022-12-18T00:33:21;99252.56;;;-8.32
64394;BMP280;50712;49.506;10.400;2022-12-18T00:33:53;99259.44;;;-8.31
64394;BMP280;50712;49.506;10.400;2022-12-18T00:34:25;99258.66;;;-8.32
64394;BMP280;50712;49.506;10.400;2022-12-18T00:34:56;99262.06;;;-8.31
64394;BMP280;50712;49.506;10.400;2022-12-18T00:35:26;99263.63;;;-8.30
64394;BMP280;50712;49.506;10.400;2022-12-18T00:36:03;99267.38;;;-8.31
64394;BMP280;50712;49.506;10.400;2022-12-18T00:36:39;99273.44;;;-8.31
64394;BMP280;50712;49.506;10.400;2022-12-18T00:37:11;99259.44;;;-8.31
64394;BMP280;50712;49.506;10.400;2022-12-18T00:37:41;99260.22;;;-8.31
64394;BMP280;50712;49.506;10.400;2022-12-18T00:38:11;99259.44;;;-8.31
64394;BMP280;50712;49.506;10.400;2022-12-18T00:38:41;99263.63;;;-8.30
64394;BMP280;50712;49.506;10.400;2022-12-18T00:39:12;99267.38;;;-8.31
64394;BMP280;50712;49.506;10.400;2022-12-18T00:39:43;99272.66;;;-8.31
64394;BMP280;50712;49.506;10.400;2022-12-18T00:40:13;99265.50;;;-8.31
64394;BMP280;50712;49.506;10.400;2022-12-18T00:40:43;99272.66;;;-8.31
64394;BMP280;50712;49.506;10.400;2022-12-18T00:41:16;99279.78;;;-8.32
64394;BMP280;50712;49.506;10.400;2022-12-18T00:42:09;99272.91;;;-8.33
64394;BMP280;50712;49.506;10.400;2022-12-18T00:42:59;99279.28;;;-8.34
64394;BMP280;50712;49.506;10.400;2022-12-18T00:43:29;99269.00;;;-8.35
64394;BMP280;50712;49.506;10.400;2022-12-18T00:43:59;99272.41;;;-8.35
64394;BMP280;50712;49.506;10.400;2022-12-18T00:44:30;99269.00;;;-8.35
64394;BMP280;50712;49.506;10.400;2022-12-18T00:45:00;99275.34;;;-8.36
64394;BMP280;50712;49.506;10.400;2022-12-18T00:45:31;99270.06;;;-8.36
64394;BMP280;50712;49.506;10.400;2022-12-18T00:46:01;99273.78;;;-8.37
64394;BMP280;50712;49.506;10.400;2022-12-18T00:46:31;99273.00;;;-8.38
64394;BMP280;50712;49.506;10.400;2022-12-18T00:47:02;99272.19;;;-8.38
64394;BMP280;50712;49.506;10.400;2022-12-18T00:47:33;99276.16;;;-8.41
64394;BMP280;50712;49.506;10.400;2022-12-18T00:48:03;99275.09;;;-8.40
64394;BMP280;50712;49.506;10.400;2022-12-18T00:48:34;99270.88;;;-8.41
64394;BMP280;50712;49.506;10.400;2022-12-18T00:49:04;99276.16;;;-8.41
64394;BMP280;50712;49.506;10.400;2022-12-18T00:49:35;99282.50;;;-8.42
64394;BMP280;50712;49.506;10.400;2022-12-18T00:50:05;99278.28;;;-8.43
64394;BMP280;50712;49.506;10.400;2022-12-18T00:50:36;99283.56;;;-8.43
64394;BMP280;50712;49.506;10.400;2022-12-18T00:51:06;99275.94;;;-8.44
64394;BMP280;50712;49.506;10.400;2022-12-18T00:51:38;99279.38;;;-8.44
64394;BMP280;50712;49.506;10.400;2022-12-18T00:52:09;99282.28;;;-8.45
64394;BMP280;50712;49.506;10.400;2022-12-18T00:52:40;99275.41;;;-8.46
64394;BMP280;50712;49.506;10.400;2022-12-18T00:53:10;99281.78;;;-8.47
64394;BMP280;50712;49.506;10.400;2022-12-18T00:53:41;99281.00;;;-8.48
64394;BMP280;50712;49.506;10.400;2022-12-18T00:54:11;99281.25;;;-8.49
64394;BMP280;50712;49.506;10.400;2022-12-18T00:54:42;99279.69;;;-8.50
64394;BMP280;50712;49.506;10.400;2022-12-18T00:55:12;99281.53;;;-8.51
64394;BMP280;50712;49.506;10.400;2022-12-18T00:55:43;99290.25;;;-8.50
64394;BMP280;50712;49.506;10.400;2022-12-18T00:56:15;99281.81;;;-8.52
64394;BMP280;50712;49.506;10.400;2022-12-18T00:56:45;99281.31;;;-8.54
64394;BMP280;50712;49.506;10.400;2022-12-18T00:57:16;99287.38;;;-8.54
64394;BMP280;50712;49.506;10.400;2022-12-18T00:57:47;99285.00;;;-8.55
64394;BMP280;50712;49.506;10.400;2022-12-18T00:58:18;99279.72;;;-8.55
64394;BMP280;50712;49.506;10.400;2022-12-18T00:58:49;99277.38;;;-8.57
64394;BMP280;50712;49.506;10.400;2022-12-18T00:59:19;99282.66;;;-8.57
64394;BMP280;50712;49.506;10.400;2022-12-18T00:59:50;99270.78;;;-8.59
64394;BMP280;50712;49.506;10.400;2022-12-18T01:00:22;99270.78;;;-8.59
64394;BMP280;50712;49.506;10.400;2022-12-18T01:00:52;99272.63;;;-8.60
64394;BMP280;50712;49.506;10.400;2022-12-18T01:01:25;99269.19;;;-8.60
64394;BMP280;50712;49.506;10.400;2022-12-18T01:01:56;99277.38;;;-8.62
64394;BMP280;50712;49.506;10.400;2022-12-18T01:02:26;99278.47;;;-8.63
64394;BMP280;50712;49.506;10.400;2022-12-18T01:02:57;99280.31;;;-8.63
64394;BMP280;50712;49.506;10.400;2022-12-18T01:03:28;99279.03;;;-8.66
64394;BMP280;50712;49.506;10.400;2022-12-18T01:04:00;99279.03;;;-8.66
64394;BMP280;50712;49.506;10.400;2022-12-18T01:04:31;99279.31;;;-8.67
64394;BMP280;50712;49.506;10.400;2022-12-18T01:05:04;99280.34;;;-8.69
64394;BMP280;50712;49.506;10.400;2022-12-18T01:05:38;99289.34;;;-8.70
64394;BMP280;50712;49.506;10.400;2022-12-18T01:06:11;99282.47;;;-8.71
64394;BMP280;50712;49.506;10.400;2022-12-18T01:06:42;99287.75;;;-8.71
64394;BMP280;50712;49.506;10.400;2022-12-18T01:07:13;99277.50;;;-8.72
64394;BMP280;50712;49.506;10.400;2022-12-18T01:07:44;99283.84;;;-8.73
64394;BMP280;50712;49.506;10.400;2022-12-18T01:08:14;99279.13;;;-8.76
64394;BMP280;50712;49.506;10.400;2022-12-18T01:08:47;99276.19;;;-8.75
64394;BMP280;50712;49.506;10.400;2022-12-18T01:09:17;99277.25;;;-8.76
64394;BMP280;50712;49.506;10.400;2022-12-18T01:09:48;99268.56;;;-8.76
64394;BMP280;50712;49.506;10.400;2022-12-18T01:10:18;99275.69;;;-8.77
64394;BMP280;50712;49.506;10.400;2022-12-18T01:10:48;99273.03;;;-8.77
64394;BMP280;50712;49.506;10.400;2022-12-18T01:11:20;99269.59;;;-8.77
64394;BMP280;50712;49.506;10.400;2022-12-18T01:11:50;99267.22;;;-8.79
64394;BMP280;50712;49.506;10.400;2022-12-18T01:12:21;99273.56;;;-8.80
64394;BMP280;50712;49.506;10.400;2022-12-18T01:12:54;99272.78;;;-8.80
64394;BMP280;50712;49.506;10.400;2022-12-18T01:13:25;99275.41;;;-8.80
64394;BMP280;50712;49.506;10.400;2022-12-18T01:13:55;99275.72;;;-8.82
64394;BMP280;50712;49.506;10.400;2022-12-18T01:14:26;99281.75;;;-8.81
64394;BMP280;50712;49.506;10.400;2022-12-18T01:14:57;99282.06;;;-8.83
64394;BMP280;50712;49.506;10.400;2022-12-18T01:15:27;99282.84;;;-8.82
64394;BMP280;50712;49.506;10.400;2022-12-18T01:15:57;99285.75;;;-8.84
64394;BMP280;50712;49.506;10.400;2022-12-18T01:16:28;99287.59;;;-8.84
64394;BMP280;50712;49.506;10.400;2022-12-18T01:16:58;99284.19;;;-8.85
64394;BMP280;50712;49.506;10.400;2022-12-18T01:17:28;99292.38;;;-8.86
64394;BMP280;50712;49.506;10.400;2022-12-18T01:17:59;99290.53;;;-8.86
64394;BMP280;50712;49.506;10.400;2022-12-18T01:18:30;99294.22;;;-8.87
64394;BMP280;50712;49.506;10.400;2022-12-18T01:19:02;99290.00;;;-8.88
64394;BMP280;50712;49.506;10.400;2022-12-18T01:19:32;99289.22;;;-8.88
64394;BMP280;50712;49.506;10.400;2022-12-18T01:20:03;99293.69;;;-8.89
64394;BMP280;50712;49.506;10.400;2022-12-18T01:20:34;99295.56;;;-8.89
64394;BMP280;50712;49.506;10.400;2022-12-18T01:21:07;99291.84;;;-8.88
64394;BMP280;50712;49.506;10.400;2022-12-18T01:21:40;99291.34;;;-8.90
64394;BMP280;50712;49.506;10.400;2022-12-18T01:22:11;99287.13;;;-8.91
64394;BMP280;50712;49.506;10.400;2022-12-18T01:22:41;99289.78;;;-8.91
64394;BMP280;50712;49.506;10.400;2022-12-18T01:23:12;99296.13;;;-8.92
64394;BMP280;50712;49.506;10.400;2022-12-18T01:23:42;99295.31;;;-8.93
64394;BMP280;50712;49.506;10.400;2022-12-18T01:24:14;99295.63;;;-8.94
64394;BMP280;50712;49.506;10.400;2022-12-18T01:24:45;99297.47;;;-8.95
64394;BMP280;50712;49.506;10.400;2022-12-18T01:25:15;99299.31;;;-8.95
64394;BMP280;50712;49.506;10.400;2022-12-18T01:25:47;99302.75;;;-8.95
64394;BMP280;50712;49.506;10.400;2022-12-18T01:26:17;99295.88;;;-8.96
64394;BMP280;50712;49.506;10.400;2022-12-18T01:26:47;99302.22;;;-8.97
64394;BMP280;50712;49.506;10.400;2022-12-18T01:27:18;99307.50;;;-8.97
64394;BMP280;50712;49.506;10.400;2022-12-18T01:27:48;99307.50;;;-8.97
64394;BMP280;50712;49.506;10.400;2022-12-18T01:28:18;99310.41;;;-8.98
64394;BMP280;50712;49.506;10.400;2022-12-18T01:28:49;99306.97;;;-8.99
64394;BMP280;50712;49.506;10.400;2022-12-18T01:29:19;99311.22;;;-8.98
64394;BMP280;50712;49.506;10.400;2022-12-18T01:29:50;99308.81;;;-8.99
64394;BMP280;50712;49.506;10.400;2022-12-18T01:30:23;99310.66;;;-9.00
64394;BMP280;50712;49.506;10.400;2022-12-18T01:30:53;99314.38;;;-9.01
64394;BMP280;50712;49.506;10.400;2022-12-18T01:31:28;99316.22;;;-9.01
64394;BMP280;50712;49.506;10.400;2022-12-18T01:32:01;99311.22;;;-9.03
64394;BMP280;50712;49.506;10.400;2022-12-18T01:32:33;99316.22;;;-9.01
64394;BMP280;50712;49.506;10.400;2022-12-18T01:33:06;99314.66;;;-9.02
64394;BMP280;50712;49.506;10.400;2022-12-18T01:33:36;99312.31;;;-9.04
64394;BMP280;50712;49.506;10.400;2022-12-18T01:34:06;99311.50;;;-9.04
64394;BMP280;50712;49.506;10.400;2022-12-18T01:34:38;99313.34;;;-9.05
64394;BMP280;50712;49.506;10.400;2022-12-18T01:35:08;99309.13;;;-9.06
64394;BMP280;50712;49.506;10.400;2022-12-18T01:35:42;99310.72;;;-9.05
64394;BMP280;50712;49.506;10.400;2022-12-18T01:36:16;99309.13;;;-9.06
64394;BMP280;50712;49.506;10.400;2022-12-18T01:36:48;99310.19;;;-9.07
64394;BMP280;50712;49.506;10.400;2022-12-18T01:37:22;99303.31;;;-9.08
64394;BMP280;50712;49.506;10.400;2022-12-18T01:37:55;99303.31;;;-9.08
64394;BMP280;50712;49.506;10.400;2022-12-18T01:38:27;99300.94;;;-9.09
64394;BMP280;50712;49.506;10.400;2022-12-18T01:38:59;99296.19;;;-9.07
64394;BMP280;50712;49.506;10.400;2022-12-18T01:39:31;99295.41;;;-9.08
64394;BMP280;50712;49.506;10.400;2022-12-18T01:40:02;99298.84;;;-9.07
64394;BMP280;50712;49.506;10.400;2022-12-18T01:40:33;99302.28;;;-9.07
64394;BMP280;50712;49.506;10.400;2022-12-18T01:41:04;99300.69;;;-9.08
64394;BMP280;50712;49.506;10.400;2022-12-18T01:41:34;99296.19;;;-9.07
64394;BMP280;50712;49.506;10.400;2022-12-18T01:42:24;99297.00;;;-9.07
64394;BMP280;50712;49.506;10.400;2022-12-18T01:42:55;99295.41;;;-9.08
64394;BMP280;50712;49.506;10.400;2022-12-18T01:45:47;99292.78;;;-9.08
64394;BMP280;50712;49.506;10.400;2022-12-18T01:46:18;99291.19;;;-9.09
64394;BMP280;50712;49.506;10.400;2022-12-18T01:46:50;99290.38;;;-9.09
64394;BMP280;50712;49.506;10.400;2022-12-18T01:47:22;99296.47;;;-9.09
64394;BMP280;50712;49.506;10.400;2022-12-18T01:48:14;99293.81;;;-9.09
64394;BMP280;50712;49.506;10.400;2022-12-18T01:48:46;99299.91;;;-9.08
64394;BMP280;50712;49.506;10.400;2022-12-18T01:49:18;99298.03;;;-9.08
64394;BMP280;50712;49.506;10.400;2022-12-18T01:49:49;99299.09;;;-9.09
64394;BMP280;50712;49.506;10.400;2022-12-18T01:50:23;99299.09;;;-9.09
64394;BMP280;50712;49.506;10.400;2022-12-18T01:50:54;99299.91;;;-9.08
64394;BMP280;50712;49.506;10.400;2022-12-18T01:51:24;99304.38;;;-9.09
64394;BMP280;50712;49.506;10.400;2022-12-18T01:51:55;99300.94;;;-9.09
64394;BMP280;50712;49.506;10.400;2022-12-18T01:52:27;99305.19;;;-9.08
64394;BMP280;50712;49.506;10.400;2022-12-18T01:53:13;99305.97;;;-9.08
64394;BMP280;50712;49.506;10.400;2022-12-18T01:53:49;99302.53;;;-9.08
64394;BMP280;50712;49.506;10.400;2022-12-18T01:54:19;99308.59;;;-9.08
64394;BMP280;50712;49.506;10.400;2022-12-18T01:54:50;99307.81;;;-9.08
64394;BMP280;50712;49.506;10.400;2022-12-18T01:55:24;99309.41;;;-9.07
64394;BMP280;50712;49.506;10.400;2022-12-18T01:55:56;99308.59;;;-9.08
64394;BMP280;50712;49.506;10.400;2022-12-18T01:56:28;99307.81;;;-9.08
64394;BMP280;50712;49.506;10.400;2022-12-18T01:56:59;99310.72;;;-9.10
64394;BMP280;50712;49.506;10.400;2022-12-18T01:57:31;99314.94;;;-9.09
64394;BMP280;50712;49.506;10.400;2022-12-18T01:58:02;99316.53;;;-9.08
64394;BMP280;50712;49.506;10.400;2022-12-18T01:59:25;99316.78;;;-9.09
64394;BMP280;50712;49.506;10.400;2022-12-18T01:59:57;99312.28;;;-9.09
64394;BMP280;50712;49.506;10.400;2022-12-18T02:00:31;99312.28;;;-9.09
64394;BMP280;50712;49.506;10.400;2022-12-18T02:01:01;99311.50;;;-9.09
64394;BMP280;50712;49.506;10.400;2022-12-18T02:01:32;99307.03;;;-9.09
64394;BMP280;50712;49.506;10.400;2022-12-18T02:02:05;99317.56;;;-9.09
64394;BMP280;50712;49.506;10.400;2022-12-18T02:02:36;99320.22;;;-9.09
64394;BMP280;50712;49.506;10.400;2022-12-18T02:03:06;99316.78;;;-9.09
64394;BMP280;50712;49.506;10.400;2022-12-18T02:03:37;99322.84;;;-9.09
64394;BMP280;50712;49.506;10.400;2022-12-18T02:04:26;99317.56;;;-9.09
64394;BMP280;50712;49.506;10.400;2022-12-18T02:04:57;99314.94;;;-9.09
64394;BMP280;50712;49.506;10.400;2022-12-18T02:06:37;99318.38;;;-9.08
64394;BMP280;50712;49.506;10.400;2022-12-18T02:09:46;99315.50;;;-9.12
64394;BMP280;50712;49.506;10.400;2022-12-18T02:10:27;99316.28;;;-9.11
64394;BMP280;50712;49.506;10.400;2022-12-18T02:12:49;99309.72;;;-9.14
64394;BMP280;50712;49.506;10.400;2022-12-18T02:13:29;99304.69;;;-9.16
64394;BMP280;50712;49.506;10.400;2022-12-18T02:14:59;99313.94;;;-9.18
64394;BMP280;50712;49.506;10.400;2022-12-18T02:17:15;99306.28;;;-9.20
64394;BMP280;50712;49.506;10.400;2022-12-18T02:17:52;99314.50;;;-9.21
64394;BMP280;50712;49.506;10.400;2022-12-18T02:18:28;99307.63;;;-9.22
64394;BMP280;50712;49.506;10.400;2022-12-18T02:19:11;99312.13;;;-9.23
64394;BMP280;50712;49.506;10.400;2022-12-18T02:20:03;99304.19;;;-9.23
64394;BMP280;50712;49.506;10.400;2022-12-18T02:20:40;99319.25;;;-9.23
64394;BMP280;50712;49.506;10.400;2022-12-18T02:21:31;99309.47;;;-9.23
64394;BMP280;50712;49.506;10.400;2022-12-18T02:24:40;99304.75;;;-9.26
64394;BMP280;50712;49.506;10.400;2022-12-18T02:26:01;99305.00;;;-9.27
64394;BMP280;50712;49.506;10.400;2022-12-18T02:26:38;99304.22;;;-9.28
64394;BMP280;50712;49.506;10.400;2022-12-18T02:27:17;99303.16;;;-9.27
64394;BMP280;50712;49.506;10.400;2022-12-18T02:27:49;99300.78;;;-9.28
64394;BMP280;50712;49.506;10.400;2022-12-18T02:28:21;99307.66;;;-9.27
64394;BMP280;50712;49.506;10.400;2022-12-18T02:29:52;99311.34;;;-9.28
64394;BMP280;50712;49.506;10.400;2022-12-18T02:30:25;99306.06;;;-9.28
64394;BMP280;50712;49.506;10.400;2022-12-18T02:31:01;99303.44;;;-9.28
64394;BMP280;50712;49.506;10.400;2022-12-18T02:31:36;99320.84;;;-9.27
64394;BMP280;50712;49.506;10.400;2022-12-18T02:32:15;99321.91;;;-9.28
64394;BMP280;50712;49.506;10.400;2022-12-18T02:32:51;99310.53;;;-9.29
64394;BMP280;50712;49.506;10.400;2022-12-18T02:33:23;99307.13;;;-9.29
64394;BMP280;50712;49.506;10.400;2022-12-18T02:33:59;99310.84;;;-9.30
64394;BMP280;50712;49.506;10.400;2022-12-18T02:34:39;99315.03;;;-9.29
64394;BMP280;50712;49.506;10.400;2022-12-18T02:35:16;99314.28;;;-9.30
64394;BMP280;50712;49.506;10.400;2022-12-18T02:35:56;99308.19;;;-9.30
64394;BMP280;50712;49.506;10.400;2022-12-18T02:36:30;99302.94;;;-9.30
64394;BMP280;50712;49.506;10.400;2022-12-18T02:37:07;99305.56;;;-9.30
64394;BMP280;50712;49.506;10.400;2022-12-18T02:37:39;99302.94;;;-9.30
64394;BMP280;50712;49.506;10.400;2022-12-18T02:38:10;99305.56;;;-9.30
64394;BMP280;50712;49.506;10.400;2022-12-18T02:38:44;99303.97;;;-9.31
64394;BMP280;50712;49.506;10.400;2022-12-18T02:39:19;99302.13;;;-9.31
64394;BMP280;50712;49.506;10.400;2022-12-18T02:40:02;99293.72;;;-9.33
64394;BMP280;50712;49.506;10.400;2022-12-18T02:40:35;99319.81;;;-9.31
64394;BMP280;50712;49.506;10.400;2022-12-18T02:41:07;99311.09;;;-9.32
64394;BMP280;50712;49.506;10.400;2022-12-18T02:41:39;99300.84;;;-9.33
64394;BMP280;50712;49.506;10.400;2022-12-18T02:42:10;99309.53;;;-9.33
64394;BMP280;50712;49.506;10.400;2022-12-18T02:42:41;99316.66;;;-9.33
64394;BMP280;50712;49.506;10.400;2022-12-18T02:43:14;99310.59;;;-9.34
64394;BMP280;50712;49.506;10.400;2022-12-18T02:43:47;99313.25;;;-9.34
64394;BMP280;50712;49.506;10.400;2022-12-18T02:44:20;99310.59;;;-9.34
64394;BMP280;50712;49.506;10.400;2022-12-18T02:44:51;99313.47;;;-9.35
64394;BMP280;50712;49.506;10.400;2022-12-18T02:45:25;99314.03;;;-9.33
64394;BMP280;50712;49.506;10.400;2022-12-18T02:45:58;99311.66;;;-9.35
64394;BMP280;50712;49.506;10.400;2022-12-18T02:46:35;99310.03;;;-9.36
64394;BMP280;50712;49.506;10.400;2022-12-18T02:47:14;99305.56;;;-9.35
64394;BMP280;50712;49.506;10.400;2022-12-18T02:47:48;99297.94;;;-9.37
64394;BMP280;50712;49.506;10.400;2022-12-18T02:48:22;99307.41;;;-9.36
64394;BMP280;50712;49.506;10.400;2022-12-18T02:48:57;99308.47;;;-9.37
64394;BMP280;50712;49.506;10.400;2022-12-18T02:49:43;99302.41;;;-9.37
64394;BMP280;50712;49.506;10.400;2022-12-18T02:50:30;99298.97;;;-9.38
64394;BMP280;50712;49.506;10.400;2022-12-18T02:51:13;99292.91;;;-9.38
64394;BMP280;50712;49.506;10.400;2022-12-18T02:53:33;99303.75;;;-9.40
64394;BMP280;50712;49.506;10.400;2022-12-18T02:54:10;99299.53;;;-9.41
64394;BMP280;50712;49.506;10.400;2022-12-18T02:55:35;99304.03;;;-9.41
64394;BMP280;50712;49.506;10.400;2022-12-18T02:56:32;99289.28;;;-9.42
64394;BMP280;50712;49.506;10.400;2022-12-18T02:57:53;99297.19;;;-9.42
64394;BMP280;50712;49.506;10.400;2022-12-18T02:58:07;99301.69;;;-9.43
64394;BMP280;50712;49.506;10.400;2022-12-18T02:58:47;99303.53;;;-9.43
64394;BMP280;50712;49.506;10.400;2022-12-18T02:59:41;99308.00;;;-9.44
64394;BMP280;50712;49.506;10.400;2022-12-18T03:00:35;99299.28;;;-9.44
64394;BMP280;50712;49.506;10.400;2022-12-18T03:01:31;99295.03;;;-9.45
64394;BMP280;50712;49.506;10.400;2022-12-18T03:02:21;99299.28;;;-9.44
64394;BMP280;50712;49.506;10.400;2022-12-18T03:03:42;99292.41;;;-9.45
64394;BMP280;50712;49.506;10.400;2022-12-18T03:05:04;99294.28;;;-9.46
64394;BMP280;50712;49.506;10.400;2022-12-18T03:05:38;99292.69;;;-9.47
64394;BMP280;50712;49.506;10.400;2022-12-18T03:06:39;99294.53;;;-9.47
64394;BMP280;50712;49.506;10.400;2022-12-18T03:07:18;99297.19;;;-9.47
64394;BMP280;50712;49.506;10.400;2022-12-18T03:08:06;99295.59;;;-9.48
64394;BMP280;50712;49.506;10.400;2022-12-18T03:08:42;99299.81;;;-9.47
64394;BMP280;50712;49.506;10.400;2022-12-18T03:09:19;99302.75;;;-9.49
64394;BMP280;50712;49.506;10.400;2022-12-18T03:09:54;99304.31;;;-9.48
64394;BMP280;50712;49.506;10.400;2022-12-18T03:10:27;99303.50;;;-9.48
64394;BMP280;50712;49.506;10.400;2022-12-18T03:11:03;99308.53;;;-9.47
64394;BMP280;50712;49.506;10.400;2022-12-18T03:11:38;99295.59;;;-9.48
64394;BMP280;50712;49.506;10.400;2022-12-18T03:12:31;99304.31;;;-9.48
64394;BMP280;50712;49.506;10.400;2022-12-18T03:13:10;99306.69;;;-9.46
64394;BMP280;50712;49.506;10.400;2022-12-18T03:13:46;99318.78;;;-9.45
64394;BMP280;50712;49.506;10.400;2022-12-18T03:14:21;99312.75;;;-9.46
64394;BMP280;50712;49.506;10.400;2022-12-18T03:14:57;99318.56;;;-9.44
64394;BMP280;50712;49.506;10.400;2022-12-18T03:15:30;99318.56;;;-9.44
64394;BMP280;50712;49.506;10.400;2022-12-18T03:16:12;99317.72;;;-9.44
64394;BMP280;50712;49.506;10.400;2022-12-18T03:16:49;99316.72;;;-9.43
64394;BMP280;50712;49.506;10.400;2022-12-18T03:17:25;99316.72;;;-9.43
64394;BMP280;50712;49.506;10.400;2022-12-18T03:18:02;99314.06;;;-9.43
64394;BMP280;50712;49.506;10.400;2022-12-18T03:18:44;99318.78;;;-9.45
64394;BMP280;50712;49.506;10.400;2022-12-18T03:19:18;99314.59;;;-9.46
64394;BMP280;50712;49.506;10.400;2022-12-18T03:19:56;99320.13;;;-9.48
64394;BMP280;50712;49.506;10.400;2022-12-18T03:20:29;99317.78;;;-9.49
64394;BMP280;50712;49.506;10.400;2022-12-18T03:21:03;99316.19;;;-9.50
64394;BMP280;50712;49.506;10.400;2022-12-18T03:21:40;99328.34;;;-9.49
64394;BMP280;50712;49.506;10.400;2022-12-18T03:22:15;99327.53;;;-9.50
64394;BMP280;50712;49.506;10.400;2022-12-18T03:22:55;99331.22;;;-9.51
64394;BMP280;50712;49.506;10.400;2022-12-18T03:23:33;99328.34;;;-9.49
64394;BMP280;50712;49.506;10.400;2022-12-18T03:24:06;99324.09;;;-9.50
64394;BMP280;50712;49.506;10.400;2022-12-18T03:24:39;99328.34;;;-9.49
64394;BMP280;50712;49.506;10.400;2022-12-18T03:25:11;99330.97;;;-9.49
64394;BMP280;50712;49.506;10.400;2022-12-18T03:25:45;99319.63;;;-9.50
64394;BMP280;50712;49.506;10.400;2022-12-18T03:26:23;99321.22;;;-9.49
64394;BMP280;50712;49.506;10.400;2022-12-18T03:27:01;99319.34;;;-9.48
64394;BMP280;50712;49.506;10.400;2022-12-18T03:27:36;99318.56;;;-9.49
64394;BMP280;50712;49.506;10.400;2022-12-18T03:28:12;99315.94;;;-9.49
64394;BMP280;50712;49.506;10.400;2022-12-18T03:28:47;99320.91;;;-9.47
64394;BMP280;50712;49.506;10.400;2022-12-18T03:29:22;99324.34;;;-9.47
64394;BMP280;50712;49.506;10.400;2022-12-18T03:30:03;99320.66;;;-9.46
64394;BMP280;50712;49.506;10.400;2022-12-18T03:30:41;99319.88;;;-9.46
64394;BMP280;50712;49.506;10.400;2022-12-18T03:31:15;99326.69;;;-9.45